sensor_id;sensor_type;location;lat;lon;timestamp;pressure;altitude;pressure_sealevel;temperature;humidity
72570;BME280;60594;50.204;8.844;2023-04-05T00:01:34;100721.31;;;2.96;67.67
72570;BME280;60594;50.204;8.844;2023-04-05T00:04:03;100731.00;;;2.95;67.72
72570;BME280;60594;50.204;8.844;2023-04-05T00:06:30;100732.72;;;2.96;66.64
72570;BME280;60594;50.204;8.844;2023-04-05T00:08:58;100732.72;;;2.96;67.66
72570;BME280;60594;50.204;8.844;2023-04-05T00:11:29;100728.38;;;2.95;68.29
72570;BME280;60594;50.204;8.844;2023-04-05T00:13:58;100728.56;;;2.91;68.18
72570;BME280;60594;50.204;8.844;2023-04-05T00:16:26;100727.75;;;2.89;67.61
72570;BME280;60594;50.204;8.844;2023-04-05T00:18:55;100723.41;;;2.88;68.49
72570;BME280;60594;50.204;8.844;2023-04-05T00:21:23;100720.66;;;2.91;68.14
72570;BME280;60594;50.204;8.844;2023-04-05T00:23:55;100720.06;;;2.84;67.96
72570;BME280;60594;50.204;8.844;2023-04-05T00:26:23;100732.28;;;2.85;68.95
72570;BME280;60594;50.204;8.844;2023-04-05T00:28:54;100718.25;;;2.85;68.19
72570;BME280;60594;50.204;8.844;2023-04-05T00:31:21;100724.34;;;2.87;68.73
72570;BME280;60594;50.204;8.844;2023-04-05T00:33:47;100728.72;;;2.86;67.63
72570;BME280;60594;50.204;8.844;2023-04-05T00:36:17;100728.56;;;2.91;68.18
72570;BME280;60594;50.204;8.844;2023-04-05T00:38:45;100720.19;;;2.81;69.84
72570;BME280;60594;50.204;8.844;2023-04-05T00:41:12;100727.03;;;2.85;68.74
72570;BME280;60594;50.204;8.844;2023-04-05T00:43:39;100723.63;;;2.82;67.66
72570;BME280;60594;50.204;8.844;2023-04-05T00:46:07;100730.69;;;2.81;69.23
72570;BME280;60594;50.204;8.844;2023-04-05T00:48:34;100727.25;;;2.79;68.61
72570;BME280;60594;50.204;8.844;2023-04-05T00:51:01;100730.75;;;2.80;68.20
72570;BME280;60594;50.204;8.844;2023-04-05T00:53:29;100724.09;;;2.71;68.64
72570;BME280;60594;50.204;8.844;2023-04-05T00:55:57;100724.13;;;2.70;68.42
72570;BME280;60594;50.204;8.844;2023-04-05T00:58:23;100718.16;;;2.66;69.80
72570;BME280;60594;50.204;8.844;2023-04-05T01:00:57;100718.22;;;2.65;69.42
72570;BME280;60594;50.204;8.844;2023-04-05T01:03:28;100712.19;;;2.61;69.71
72570;BME280;60594;50.204;8.844;2023-04-05T01:08:43;100702.97;;;2.51;68.53
72570;BME280;60594;50.204;8.844;2023-04-05T01:11:11;100707.44;;;2.49;69.56
72570;BME280;60594;50.204;8.844;2023-04-05T01:13:39;100703.31;;;2.42;68.97
72570;BME280;60594;50.204;8.844;2023-04-05T01:16:06;100700.97;;;2.36;70.23
72570;BME280;60594;50.204;8.844;2023-04-05T01:18:32;100699.97;;;2.39;70.47
72570;BME280;60594;50.204;8.844;2023-04-05T01:21:28;100695.94;;;2.30;70.81
72570;BME280;60594;50.204;8.844;2023-04-05T01:26:59;100683.25;;;2.18;72.94
72570;BME280;60594;50.204;8.844;2023-04-05T01:29:41;100700.97;;;2.13;74.19
72570;BME280;60594;50.204;8.844;2023-04-05T01:32:23;100687.81;;;2.13;74.17
72570;BME280;60594;50.204;8.844;2023-04-05T01:37:29;100693.75;;;1.95;76.16
72570;BME280;60594;50.204;8.844;2023-04-05T01:39:59;100689.47;;;1.93;76.96
72570;BME280;60594;50.204;8.844;2023-04-05T01:42:25;100691.09;;;1.74;77.15
72570;BME280;60594;50.204;8.844;2023-04-05T01:44:53;100688.50;;;1.72;77.91
72570;BME280;60594;50.204;8.844;2023-04-05T01:47:20;100686.84;;;1.70;76.79
72570;BME280;60594;50.204;8.844;2023-04-05T01:49:48;100692.25;;;1.65;77.76
72570;BME280;60594;50.204;8.844;2023-04-05T01:52:14;100690.56;;;1.64;77.44
72570;BME280;60594;50.204;8.844;2023-04-05T01:54:41;100687.81;;;1.67;78.28
72570;BME280;60594;50.204;8.844;2023-04-05T01:57:08;100690.72;;;1.60;77.10
72570;BME280;60594;50.204;8.844;2023-04-05T01:59:35;100680.50;;;1.52;76.38
72570;BME280;60594;50.204;8.844;2023-04-05T02:02:02;100681.13;;;1.59;75.64
72570;BME280;60594;50.204;8.844;2023-04-05T02:04:29;100671.75;;;1.52;75.96
72570;BME280;60594;50.204;8.844;2023-04-05T02:06:55;100683.06;;;1.54;73.77
72570;BME280;60594;50.204;8.844;2023-04-05T02:09:22;100678.03;;;1.48;74.72
72570;BME280;60594;50.204;8.844;2023-04-05T02:11:48;100677.13;;;1.49;75.10
72570;BME280;60594;50.204;8.844;2023-04-05T02:14:15;100678.03;;;1.48;74.46
72570;BME280;60594;50.204;8.844;2023-04-05T02:16:42;100675.47;;;1.46;73.51
72570;BME280;60594;50.204;8.844;2023-04-05T02:19:10;100667.09;;;1.35;74.73
72570;BME280;60594;50.204;8.844;2023-04-05T02:21:36;100672.66;;;1.28;73.72
72570;BME280;60594;50.204;8.844;2023-04-05T02:24:03;100673.53;;;1.27;74.44
72570;BME280;60594;50.204;8.844;2023-04-05T02:26:29;100675.53;;;1.20;75.73
72570;BME280;60594;50.204;8.844;2023-04-05T02:28:57;100674.72;;;1.18;75.60
72570;BME280;60594;50.204;8.844;2023-04-05T02:31:23;100678.91;;;1.24;76.64
72570;BME280;60594;50.204;8.844;2023-04-05T02:33:50;100666.78;;;1.20;75.64
72570;BME280;60594;50.204;8.844;2023-04-05T02:36:16;100682.75;;;1.14;75.45
72570;BME280;60594;50.204;8.844;2023-04-05T02:38:45;100683.19;;;1.02;75.57
72570;BME280;60594;50.204;8.844;2023-04-05T02:41:11;100676.28;;;0.98;76.27
72570;BME280;60594;50.204;8.844;2023-04-05T02:43:38;100668.59;;;0.93;75.83
72570;BME280;60594;50.204;8.844;2023-04-05T02:46:04;100672.78;;;0.99;77.29
72570;BME280;60594;50.204;8.844;2023-04-05T02:48:32;100678.13;;;0.96;77.21
72570;BME280;60594;50.204;8.844;2023-04-05T02:50:59;100669.44;;;0.94;75.97
72570;BME280;60594;50.204;8.844;2023-04-05T02:53:25;100671.22;;;0.93;75.27
72570;BME280;60594;50.204;8.844;2023-04-05T02:55:58;100668.38;;;0.99;74.29
72570;BME280;60594;50.204;8.844;2023-04-05T02:58:25;100672.97;;;0.93;74.59
72570;BME280;60594;50.204;8.844;2023-04-05T03:00:52;100671.31;;;0.90;74.62
72570;BME280;60594;50.204;8.844;2023-04-05T03:03:25;100673.31;;;0.84;74.63
72570;BME280;60594;50.204;8.844;2023-04-05T03:06:01;100671.59;;;0.81;74.77
72570;BME280;60594;50.204;8.844;2023-04-05T03:08:42;100675.47;;;0.71;75.37
72570;BME280;60594;50.204;8.844;2023-04-05T03:11:14;100661.75;;;0.63;76.21
72570;BME280;60594;50.204;8.844;2023-04-05T03:13:45;100658.31;;;0.61;77.70
72570;BME280;60594;50.204;8.844;2023-04-05T03:16:20;100657.91;;;0.73;76.64
72570;BME280;60594;50.204;8.844;2023-04-05T03:18:49;100652.84;;;0.69;76.71
72570;BME280;60594;50.204;8.844;2023-04-05T03:21:15;100651.81;;;0.73;77.06
72570;BME280;60594;50.204;8.844;2023-04-05T03:23:52;100651.09;;;0.68;77.78
72570;BME280;60594;50.204;8.844;2023-04-05T03:26:24;100648.38;;;0.71;77.92
72570;BME280;60594;50.204;8.844;2023-04-05T03:28:53;100651.97;;;0.68;77.12
72570;BME280;60594;50.204;8.844;2023-04-05T03:31:26;100648.75;;;0.60;77.63
72570;BME280;60594;50.204;8.844;2023-04-05T03:33:59;100643.50;;;0.60;77.99
72570;BME280;60594;50.204;8.844;2023-04-05T03:36:30;100646.94;;;0.61;78.38
72570;BME280;60594;50.204;8.844;2023-04-05T03:39:10;100648.88;;;0.56;78.40
72570;BME280;60594;50.204;8.844;2023-04-05T03:41:38;100656.88;;;0.51;77.96
72570;BME280;60594;50.204;8.844;2023-04-05T03:44:07;100655.09;;;0.53;78.23
72570;BME280;60594;50.204;8.844;2023-04-05T03:46:33;100652.59;;;0.49;78.22
72570;BME280;60594;50.204;8.844;2023-04-05T03:49:01;100648.13;;;0.52;77.11
72570;BME280;60594;50.204;8.844;2023-04-05T03:51:27;100649.19;;;0.47;77.20
72570;BME280;60594;50.204;8.844;2023-04-05T03:53:54;100649.84;;;0.53;77.41
72570;BME280;60594;50.204;8.844;2023-04-05T03:56:23;100653.50;;;0.48;77.22
72570;BME280;60594;50.204;8.844;2023-04-05T03:58:51;100644.66;;;0.52;78.29
72570;BME280;60594;50.204;8.844;2023-04-05T04:01:23;100638.56;;;0.50;79.15
72570;BME280;60594;50.204;8.844;2023-04-05T04:03:49;100644.19;;;0.39;79.46
72570;BME280;60594;50.204;8.844;2023-04-05T04:06:17;100638.44;;;0.54;78.41
72570;BME280;60594;50.204;8.844;2023-04-05T04:08:44;100640.97;;;0.57;79.10
72570;BME280;60594;50.204;8.844;2023-04-05T04:11:10;100631.25;;;0.33;78.71
72570;BME280;60594;50.204;8.844;2023-04-05T04:13:39;100634.19;;;0.24;79.89
72570;BME280;60594;50.204;8.844;2023-04-05T04:16:24;100635.94;;;0.24;80.50
72570;BME280;60594;50.204;8.844;2023-04-05T04:19:08;100635.13;;;0.22;81.27
72570;BME280;60594;50.204;8.844;2023-04-05T04:21:42;100636.41;;;0.36;81.42
72570;BME280;60594;50.204;8.844;2023-04-05T04:24:20;100641.66;;;0.36;81.31
72570;BME280;60594;50.204;8.844;2023-04-05T04:27:07;100632.53;;;0.22;80.73
72570;BME280;60594;50.204;8.844;2023-04-05T04:29:43;100636.81;;;0.24;80.27
72570;BME280;60594;50.204;8.844;2023-04-05T04:32:24;100649.47;;;0.38;80.57
72570;BME280;60594;50.204;8.844;2023-04-05T04:35:12;100646.81;;;0.39;80.87
72570;BME280;60594;50.204;8.844;2023-04-05T04:37:59;100641.81;;;0.32;78.90
72570;BME280;60594;50.204;8.844;2023-04-05T04:40:45;100637.66;;;0.25;80.40
72570;BME280;60594;50.204;8.844;2023-04-05T04:43:54;100630.56;;;0.28;81.21
72570;BME280;60594;50.204;8.844;2023-04-05T04:46:41;100630.94;;;0.16;81.01
72570;BME280;60594;50.204;8.844;2023-04-05T04:49:40;100630.47;;;0.31;79.79
72570;BME280;60594;50.204;8.844;2023-04-05T04:52:07;100631.75;;;0.18;80.38
72570;BME280;60594;50.204;8.844;2023-04-05T04:54:36;100642.09;;;0.23;79.47
72570;BME280;60594;50.204;8.844;2023-04-05T04:57:02;100647.47;;;0.18;79.36
72570;BME280;60594;50.204;8.844;2023-04-05T04:59:29;100640.66;;;0.13;80.34
72570;BME280;60594;50.204;8.844;2023-04-05T05:01:55;100642.50;;;-0.19;79.79
72570;BME280;60594;50.204;8.844;2023-04-05T05:04:22;100638.28;;;-0.24;80.51
72570;BME280;60594;50.204;8.844;2023-04-05T05:06:51;100641.47;;;-0.13;82.15
72570;BME280;60594;50.204;8.844;2023-04-05T05:09:17;100640.53;;;-0.12;80.48
72570;BME280;60594;50.204;8.844;2023-04-05T05:11:50;100637.56;;;0.00;79.96
72570;BME280;60594;50.204;8.844;2023-04-05T05:14:17;100641.16;;;-0.04;79.61
72570;BME280;60594;50.204;8.844;2023-04-05T05:16:43;100647.53;;;-0.11;78.58
72570;BME280;60594;50.204;8.844;2023-04-05T05:19:10;100644.91;;;-0.11;79.46
72570;BME280;60594;50.204;8.844;2023-04-05T05:21:42;100644.16;;;-0.16;81.10
72570;BME280;60594;50.204;8.844;2023-04-05T05:24:09;100648.31;;;-0.09;80.23
72570;BME280;60594;50.204;8.844;2023-04-05T05:26:36;100644.78;;;-0.08;81.55
72570;BME280;60594;50.204;8.844;2023-04-05T05:29:03;100655.63;;;-0.20;81.58
72570;BME280;60594;50.204;8.844;2023-04-05T05:31:32;100650.06;;;-0.10;80.97
72570;BME280;60594;50.204;8.844;2023-04-05T05:33:58;100646.41;;;-0.04;80.02
72570;BME280;60594;50.204;8.844;2023-04-05T05:36:25;100656.50;;;-0.20;82.69
72570;BME280;60594;50.204;8.844;2023-04-05T05:38:53;100640.47;;;-0.09;83.49
72570;BME280;60594;50.204;8.844;2023-04-05T05:41:19;100648.75;;;0.05;82.50
72570;BME280;60594;50.204;8.844;2023-04-05T05:43:48;100657.28;;;0.12;82.47
72570;BME280;60594;50.204;8.844;2023-04-05T05:46:15;100657.47;;;0.05;81.84
72570;BME280;60594;50.204;8.844;2023-04-05T05:48:41;100658.28;;;0.08;81.16
72570;BME280;60594;50.204;8.844;2023-04-05T05:51:08;100661.91;;;0.03;81.81
72570;BME280;60594;50.204;8.844;2023-04-05T05:53:36;100659.66;;;-0.09;81.59
72570;BME280;60594;50.204;8.844;2023-04-05T05:56:02;100661.16;;;0.00;82.27
72570;BME280;60594;50.204;8.844;2023-04-05T05:58:29;100663.41;;;0.12;81.97
72570;BME280;60594;50.204;8.844;2023-04-05T06:00:56;100663.41;;;0.12;80.63
72570;BME280;60594;50.204;8.844;2023-04-05T06:03:22;100660.56;;;0.18;81.88
72570;BME280;60594;50.204;8.844;2023-04-05T06:05:51;100659.63;;;0.21;81.59
72570;BME280;60594;50.204;8.844;2023-04-05T06:08:17;100661.09;;;0.29;80.31
72570;BME280;60594;50.204;8.844;2023-04-05T06:10:44;100670.16;;;0.47;81.81
72570;BME280;60594;50.204;8.844;2023-04-05T06:13:10;100664.75;;;0.51;81.43
72570;BME280;60594;50.204;8.844;2023-04-05T06:15:37;100655.75;;;0.32;82.33
72570;BME280;60594;50.204;8.844;2023-04-05T06:18:03;100660.22;;;0.30;81.49
72570;BME280;60594;50.204;8.844;2023-04-05T06:20:30;100660.72;;;0.41;81.83
72570;BME280;60594;50.204;8.844;2023-04-05T06:22:57;100658.63;;;0.52;81.98
72570;BME280;60594;50.204;8.844;2023-04-05T06:25:24;100659.91;;;0.65;81.15
72570;BME280;60594;50.204;8.844;2023-04-05T06:27:50;100665.94;;;0.69;81.88
72570;BME280;60594;50.204;8.844;2023-04-05T06:30:17;100661.28;;;0.77;82.27
72570;BME280;60594;50.204;8.844;2023-04-05T06:32:43;100658.63;;;0.78;82.36
72570;BME280;60594;50.204;8.844;2023-04-05T06:35:11;100658.06;;;0.43;82.68
72570;BME280;60594;50.204;8.844;2023-04-05T06:37:37;100666.25;;;0.32;84.33
72570;BME280;60594;50.204;8.844;2023-04-05T06:40:05;100666.16;;;0.35;85.00
72570;BME280;60594;50.204;8.844;2023-04-05T06:42:31;100663.28;;;0.70;83.84
72570;BME280;60594;50.204;8.844;2023-04-05T06:45:03;100648.63;;;0.63;83.28
72570;BME280;60594;50.204;8.844;2023-04-05T06:47:34;100657.63;;;0.82;82.84
72570;BME280;60594;50.204;8.844;2023-04-05T06:50:02;100663.56;;;0.87;83.31
72570;BME280;60594;50.204;8.844;2023-04-05T06:52:29;100660.41;;;1.02;83.22
72570;BME280;60594;50.204;8.844;2023-04-05T06:54:56;100665.66;;;0.76;81.76
72570;BME280;60594;50.204;8.844;2023-04-05T06:57:22;100664.38;;;0.89;83.23
72570;BME280;60594;50.204;8.844;2023-04-05T06:59:50;100663.91;;;1.03;81.63
72570;BME280;60594;50.204;8.844;2023-04-05T07:02:18;100648.88;;;1.06;79.74
72570;BME280;60594;50.204;8.844;2023-04-05T07:04:45;100650.00;;;0.99;77.25
72570;BME280;60594;50.204;8.844;2023-04-05T07:07:12;100657.09;;;1.22;76.18
72570;BME280;60594;50.204;8.844;2023-04-05T07:09:39;100654.22;;;1.29;75.78
72570;BME280;60594;50.204;8.844;2023-04-05T07:12:07;100653.31;;;1.53;75.23
72570;BME280;60594;50.204;8.844;2023-04-05T07:14:35;100654.59;;;1.66;75.62
72570;BME280;60594;50.204;8.844;2023-04-05T07:17:05;100648.19;;;1.73;77.40
72570;BME280;60594;50.204;8.844;2023-04-05T07:19:32;100640.50;;;1.69;77.23
72570;BME280;60594;50.204;8.844;2023-04-05T07:21:59;100653.84;;;1.86;74.37
72570;BME280;60594;50.204;8.844;2023-04-05T07:24:25;100651.38;;;2.04;73.15
72570;BME280;60594;50.204;8.844;2023-04-05T07:26:52;100648.75;;;2.26;70.69
72570;BME280;60594;50.204;8.844;2023-04-05T07:29:18;100648.28;;;2.16;68.69
72570;BME280;60594;50.204;8.844;2023-04-05T07:31:45;100650.91;;;2.38;70.89
72570;BME280;60594;50.204;8.844;2023-04-05T07:34:12;100648.47;;;2.55;67.86
72570;BME280;60594;50.204;8.844;2023-04-05T07:36:38;100651.22;;;2.52;67.96
72570;BME280;60594;50.204;8.844;2023-04-05T07:39:05;100643.03;;;2.59;67.13
72570;BME280;60594;50.204;8.844;2023-04-05T07:41:31;100642.06;;;2.82;70.05
72570;BME280;60594;50.204;8.844;2023-04-05T07:44:00;100640.19;;;2.85;65.93
72570;BME280;60594;50.204;8.844;2023-04-05T07:46:27;100631.75;;;2.97;67.18
72570;BME280;60594;50.204;8.844;2023-04-05T07:48:53;100643.22;;;3.16;65.27
72570;BME280;60594;50.204;8.844;2023-04-05T07:51:20;100634.25;;;3.20;65.41
72570;BME280;60594;50.204;8.844;2023-04-05T07:53:47;100649.53;;;3.32;65.72
72570;BME280;60594;50.204;8.844;2023-04-05T07:56:14;100643.94;;;3.20;63.29
72570;BME280;60594;50.204;8.844;2023-04-05T07:58:41;100640.13;;;3.27;64.52
72570;BME280;60594;50.204;8.844;2023-04-05T08:01:09;100639.22;;;3.46;65.11
72570;BME280;60594;50.204;8.844;2023-04-05T08:03:36;100635.78;;;3.64;63.79
72570;BME280;60594;50.204;8.844;2023-04-05T08:06:12;100643.75;;;3.63;64.05
72570;BME280;60594;50.204;8.844;2023-04-05T08:08:40;100643.84;;;3.80;62.93
72570;BME280;60594;50.204;8.844;2023-04-05T08:11:06;100641.66;;;3.90;64.99
72570;BME280;60594;50.204;8.844;2023-04-05T08:13:33;100637.59;;;4.01;63.24
72570;BME280;60594;50.204;8.844;2023-04-05T08:16:00;100631.06;;;4.10;59.78
72570;BME280;60594;50.204;8.844;2023-04-05T08:18:27;100633.53;;;4.13;60.99
72570;BME280;60594;50.204;8.844;2023-04-05T08:20:54;100636.44;;;4.25;59.01
72570;BME280;60594;50.204;8.844;2023-04-05T08:23:21;100630.88;;;4.31;60.47
72570;BME280;60594;50.204;8.844;2023-04-05T08:25:48;100617.97;;;4.44;61.10
72570;BME280;60594;50.204;8.844;2023-04-05T08:28:14;100626.53;;;4.66;60.36
72570;BME280;60594;50.204;8.844;2023-04-05T08:30:41;100631.34;;;4.75;58.45
72570;BME280;60594;50.204;8.844;2023-04-05T08:33:07;100616.03;;;4.81;57.16
72570;BME280;60594;50.204;8.844;2023-04-05T08:35:37;100626.94;;;4.75;54.66
72570;BME280;60594;50.204;8.844;2023-04-05T08:38:07;100619.66;;;4.97;57.39
72570;BME280;60594;50.204;8.844;2023-04-05T08:40:42;100632.53;;;5.20;55.22
72570;BME280;60594;50.204;8.844;2023-04-05T08:43:16;100625.44;;;5.38;52.42
72570;BME280;60594;50.204;8.844;2023-04-05T08:45:49;100624.91;;;5.81;56.35
72570;BME280;60594;50.204;8.844;2023-04-05T08:48:17;100625.28;;;6.37;55.57
72570;BME280;60594;50.204;8.844;2023-04-05T08:50:53;100620.38;;;6.76;50.34
72570;BME280;60594;50.204;8.844;2023-04-05T08:53:20;100616.47;;;7.11;49.80
72570;BME280;60594;50.204;8.844;2023-04-05T08:55:52;100617.19;;;7.43;50.92
72570;BME280;60594;50.204;8.844;2023-04-05T08:58:21;100610.50;;;7.79;46.84
72570;BME280;60594;50.204;8.844;2023-04-05T09:00:52;100609.91;;;8.16;48.22
72570;BME280;60594;50.204;8.844;2023-04-05T09:03:22;100603.91;;;8.67;45.17
72570;BME280;60594;50.204;8.844;2023-04-05T09:05:52;100610.28;;;8.77;45.10
72570;BME280;60594;50.204;8.844;2023-04-05T09:08:19;100612.09;;;9.28;46.35
72570;BME280;60594;50.204;8.844;2023-04-05T09:10:48;100608.19;;;9.59;44.39
72570;BME280;60594;50.204;8.844;2023-04-05T09:13:16;100606.88;;;9.14;44.20
72570;BME280;60594;50.204;8.844;2023-04-05T09:15:43;100610.50;;;9.26;44.22
72570;BME280;60594;50.204;8.844;2023-04-05T09:18:09;100609.34;;;9.92;45.22
72570;BME280;60594;50.204;8.844;2023-04-05T09:20:36;100605.69;;;8.93;41.92
72570;BME280;60594;50.204;8.844;2023-04-05T09:23:02;100610.94;;;9.45;42.92
72570;BME280;60594;50.204;8.844;2023-04-05T09:28:07;100604.03;;;9.80;43.51
72570;BME280;60594;50.204;8.844;2023-04-05T09:30:35;100602.09;;;9.69;42.30
72570;BME280;60594;50.204;8.844;2023-04-05T09:33:06;100603.38;;;9.89;41.90
72570;BME280;60594;50.204;8.844;2023-04-05T09:35:35;100599.75;;;9.15;42.90
72570;BME280;60594;50.204;8.844;2023-04-05T09:38:03;100602.56;;;9.38;42.06
72570;BME280;60594;50.204;8.844;2023-04-05T09:40:42;100597.75;;;9.56;43.60
72570;BME280;60594;50.204;8.844;2023-04-05T09:43:10;100606.34;;;9.84;43.01
72570;BME280;60594;50.204;8.844;2023-04-05T09:45:38;100591.81;;;9.65;42.18
72570;BME280;60594;50.204;8.844;2023-04-05T09:48:07;100605.81;;;9.29;41.51
72570;BME280;60594;50.204;8.844;2023-04-05T09:50:34;100591.91;;;9.38;39.90
72570;BME280;60594;50.204;8.844;2023-04-05T09:53:12;100585.81;;;9.36;41.99
72570;BME280;60594;50.204;8.844;2023-04-05T09:55:42;100603.28;;;9.65;41.31
72570;BME280;60594;50.204;8.844;2023-04-05T09:58:17;100597.53;;;9.34;43.78
72570;BME280;60594;50.204;8.844;2023-04-05T10:00:52;100603.94;;;9.81;44.40
72570;BME280;60594;50.204;8.844;2023-04-05T10:03:20;100597.53;;;9.21;41.13
72570;BME280;60594;50.204;8.844;2023-04-05T10:05:54;100587.66;;;9.36;43.70
72570;BME280;60594;50.204;8.844;2023-04-05T10:08:21;100588.69;;;10.08;42.30
72570;BME280;60594;50.204;8.844;2023-04-05T10:10:49;100579.78;;;10.20;40.72
72570;BME280;60594;50.204;8.844;2023-04-05T10:13:18;100576.03;;;10.23;39.73
72570;BME280;60594;50.204;8.844;2023-04-05T10:15:46;100580.31;;;10.49;41.61
72570;BME280;60594;50.204;8.844;2023-04-05T10:18:17;100583.44;;;10.43;40.55
72570;BME280;60594;50.204;8.844;2023-04-05T10:20:49;100582.59;;;10.43;41.37
72570;BME280;60594;50.204;8.844;2023-04-05T10:23:24;100574.94;;;10.02;38.71
72570;BME280;60594;50.204;8.844;2023-04-05T10:25:58;100582.63;;;9.19;40.58
72570;BME280;60594;50.204;8.844;2023-04-05T10:31:20;100570.31;;;8.79;41.67
72570;BME280;60594;50.204;8.844;2023-04-05T10:34:07;100568.81;;;9.26;43.84
72570;BME280;60594;50.204;8.844;2023-04-05T10:36:56;100573.22;;;9.88;43.47
72570;BME280;60594;50.204;8.844;2023-04-05T10:39:27;100571.22;;;9.92;40.66
72570;BME280;60594;50.204;8.844;2023-04-05T10:41:59;100569.50;;;10.03;42.13
72570;BME280;60594;50.204;8.844;2023-04-05T10:44:30;100574.00;;;9.65;41.65
72570;BME280;60594;50.204;8.844;2023-04-05T10:46:59;100574.09;;;9.89;42.81
72570;BME280;60594;50.204;8.844;2023-04-05T10:49:28;100560.50;;;10.29;42.13
72570;BME280;60594;50.204;8.844;2023-04-05T10:51:57;100555.53;;;10.12;38.33
72570;BME280;60594;50.204;8.844;2023-04-05T10:54:24;100556.19;;;10.03;40.32
72570;BME280;60594;50.204;8.844;2023-04-05T10:56:51;100555.38;;;10.26;41.24
72570;BME280;60594;50.204;8.844;2023-04-05T10:59:19;100557.53;;;10.69;40.66
72570;BME280;60594;50.204;8.844;2023-04-05T11:01:47;100548.16;;;10.39;35.90
72570;BME280;60594;50.204;8.844;2023-04-05T11:04:14;100549.00;;;10.87;38.19
72570;BME280;60594;50.204;8.844;2023-04-05T11:06:42;100550.09;;;10.85;36.29
72570;BME280;60594;50.204;8.844;2023-04-05T11:09:21;100543.88;;;10.26;36.43
72570;BME280;60594;50.204;8.844;2023-04-05T11:11:49;100539.91;;;10.31;40.17
72570;BME280;60594;50.204;8.844;2023-04-05T11:16:45;100529.25;;;10.90;38.67
72570;BME280;60594;50.204;8.844;2023-04-05T11:19:15;100529.53;;;11.09;41.59
72570;BME280;60594;50.204;8.844;2023-04-05T11:21:41;100533.56;;;11.14;42.59
72570;BME280;60594;50.204;8.844;2023-04-05T11:24:11;100522.88;;;10.69;36.65
72570;BME280;60594;50.204;8.844;2023-04-05T11:29:14;100528.66;;;10.97;38.16
72570;BME280;60594;50.204;8.844;2023-04-05T11:31:57;100527.84;;;10.38;39.22
72570;BME280;60594;50.204;8.844;2023-04-05T11:34:25;100526.34;;;10.58;38.51
72570;BME280;60594;50.204;8.844;2023-04-05T11:36:51;100527.34;;;10.33;40.59
72570;BME280;60594;50.204;8.844;2023-04-05T11:44:15;100524.50;;;10.24;37.85
72570;BME280;60594;50.204;8.844;2023-04-05T11:46:42;100517.28;;;10.01;40.11
72570;BME280;60594;50.204;8.844;2023-04-05T11:49:09;100514.13;;;9.96;38.40
72570;BME280;60594;50.204;8.844;2023-04-05T11:51:36;100514.00;;;9.97;38.64
72570;BME280;60594;50.204;8.844;2023-04-05T11:54:02;100513.66;;;9.66;43.02
72570;BME280;60594;50.204;8.844;2023-04-05T11:56:29;100502.06;;;10.03;40.15
72570;BME280;60594;50.204;8.844;2023-04-05T11:58:58;100500.63;;;10.22;35.93
72570;BME280;60594;50.204;8.844;2023-04-05T12:01:25;100495.78;;;10.51;37.26
72570;BME280;60594;50.204;8.844;2023-04-05T12:03:55;100493.22;;;10.73;35.52
72570;BME280;60594;50.204;8.844;2023-04-05T12:06:23;100496.75;;;10.74;37.67
72570;BME280;60594;50.204;8.844;2023-04-05T12:08:50;100488.94;;;10.60;42.49
72570;BME280;60594;50.204;8.844;2023-04-05T12:11:30;100481.47;;;10.05;35.85
72570;BME280;60594;50.204;8.844;2023-04-05T12:14:00;100486.16;;;9.78;36.63
72570;BME280;60594;50.204;8.844;2023-04-05T12:16:27;100482.00;;;10.22;39.12
72570;BME280;60594;50.204;8.844;2023-04-05T12:18:56;100480.19;;;10.58;39.27
72570;BME280;60594;50.204;8.844;2023-04-05T12:21:23;100479.28;;;10.35;35.70
72570;BME280;60594;50.204;8.844;2023-04-05T12:23:51;100482.97;;;10.56;38.78
72570;BME280;60594;50.204;8.844;2023-04-05T12:26:18;100470.69;;;10.43;36.50
72570;BME280;60594;50.204;8.844;2023-04-05T12:28:56;100474.94;;;9.98;35.87
72570;BME280;60594;50.204;8.844;2023-04-05T12:31:39;100482.16;;;9.60;36.84
72570;BME280;60594;50.204;8.844;2023-04-05T12:34:08;100469.94;;;9.93;37.44
72570;BME280;60594;50.204;8.844;2023-04-05T12:36:35;100462.88;;;10.28;37.23
72570;BME280;60594;50.204;8.844;2023-04-05T12:39:07;100453.84;;;9.71;37.00
72570;BME280;60594;50.204;8.844;2023-04-05T12:41:34;100459.41;;;9.92;37.44
72570;BME280;60594;50.204;8.844;2023-04-05T12:44:04;100458.84;;;10.23;36.33
72570;BME280;60594;50.204;8.844;2023-04-05T12:49:09;100449.75;;;10.14;34.56
72570;BME280;60594;50.204;8.844;2023-04-05T12:51:40;100450.19;;;10.08;35.37
72570;BME280;60594;50.204;8.844;2023-04-05T12:54:07;100447.38;;;10.22;37.91
72570;BME280;60594;50.204;8.844;2023-04-05T12:56:37;100442.97;;;10.45;35.28
72570;BME280;60594;50.204;8.844;2023-04-05T12:59:05;100431.16;;;10.71;37.41
72570;BME280;60594;50.204;8.844;2023-04-05T13:01:32;100435.63;;;10.60;34.13
72570;BME280;60594;50.204;8.844;2023-04-05T13:04:00;100428.84;;;10.21;34.28
72570;BME280;60594;50.204;8.844;2023-04-05T13:06:27;100428.78;;;9.38;35.46
72570;BME280;60594;50.204;8.844;2023-04-05T13:08:53;100432.88;;;9.67;42.05
72570;BME280;60594;50.204;8.844;2023-04-05T13:11:20;100429.28;;;10.15;40.71
72570;BME280;60594;50.204;8.844;2023-04-05T13:13:46;100423.00;;;10.51;36.48
72570;BME280;60594;50.204;8.844;2023-04-05T13:16:13;100429.13;;;10.75;38.32
72570;BME280;60594;50.204;8.844;2023-04-05T13:18:39;100426.94;;;10.91;36.52
72570;BME280;60594;50.204;8.844;2023-04-05T13:21:06;100421.59;;;10.80;37.09
72570;BME280;60594;50.204;8.844;2023-04-05T13:23:36;100421.13;;;10.75;34.96
72570;BME280;60594;50.204;8.844;2023-04-05T13:26:04;100423.91;;;10.84;34.77
72570;BME280;60594;50.204;8.844;2023-04-05T13:28:31;100409.16;;;10.91;37.01
72570;BME280;60594;50.204;8.844;2023-04-05T13:30:57;100413.50;;;10.92;37.28
72570;BME280;60594;50.204;8.844;2023-04-05T13:33:24;100410.13;;;10.90;36.30
72570;BME280;60594;50.204;8.844;2023-04-05T13:35:51;100405.97;;;10.97;35.00